sensor_id;sensor_type;location;lat;lon;timestamp;P1;durP1;ratioP1;P2;durP2;ratioP2
63688;SDS011;54895;40.928;14.480;2022-10-16T00:01:12;34.35;;;20.80;;
63688;SDS011;54895;40.928;14.480;2022-10-16T00:03:40;31.98;;;19.48;;
63688;SDS011;54895;40.928;14.480;2022-10-16T00:06:08;33.10;;;21.00;;
63688;SDS011;54895;40.928;14.480;2022-10-16T00:08:35;32.58;;;19.75;;
63688;SDS011;54895;40.928;14.480;2022-10-16T00:11:03;33.95;;;19.95;;
63688;SDS011;54895;40.928;14.480;2022-10-16T00:13:35;33.08;;;21.73;;
63688;SDS011;54895;40.928;14.480;2022-10-16T00:16:02;33.78;;;21.08;;
63688;SDS011;54895;40.928;14.480;2022-10-16T00:18:29;37.25;;;22.15;;
63688;SDS011;54895;40.928;14.480;2022-10-16T00:21:00;36.00;;;21.33;;
63688;SDS011;54895;40.928;14.480;2022-10-16T00:23:49;37.90;;;23.40;;
63688;SDS011;54895;40.928;14.480;2022-10-16T00:26:17;45.10;;;24.27;;
63688;SDS011;54895;40.928;14.480;2022-10-16T00:28:47;32.22;;;20.70;;
63688;SDS011;54895;40.928;14.480;2022-10-16T00:31:16;30.33;;;19.33;;
63688;SDS011;54895;40.928;14.480;2022-10-16T00:33:43;30.05;;;19.15;;
63688;SDS011;54895;40.928;14.480;2022-10-16T00:36:11;30.98;;;18.60;;
63688;SDS011;54895;40.928;14.480;2022-10-16T00:38:38;34.92;;;21.25;;
63688;SDS011;54895;40.928;14.480;2022-10-16T00:41:06;30.63;;;19.27;;
63688;SDS011;54895;40.928;14.480;2022-10-16T00:49:04;33.75;;;21.23;;
63688;SDS011;54895;40.928;14.480;2022-10-16T00:51:55;29.30;;;17.70;;
63688;SDS011;54895;40.928;14.480;2022-10-16T00:54:24;28.58;;;18.80;;
63688;SDS011;54895;40.928;14.480;2022-10-16T00:56:53;32.75;;;19.25;;
63688;SDS011;54895;40.928;14.480;2022-10-16T00:59:24;32.95;;;19.85;;
63688;SDS011;54895;40.928;14.480;2022-10-16T01:01:53;30.92;;;19.33;;
63688;SDS011;54895;40.928;14.480;2022-10-16T01:04:20;28.17;;;18.20;;
63688;SDS011;54895;40.928;14.480;2022-10-16T01:15:54;30.23;;;18.10;;
63688;SDS011;54895;40.928;14.480;2022-10-16T01:18:37;27.30;;;18.17;;
63688;SDS011;54895;40.928;14.480;2022-10-16T01:24:01;29.98;;;17.55;;
63688;SDS011;54895;40.928;14.480;2022-10-16T01:29:08;25.65;;;17.02;;
63688;SDS011;54895;40.928;14.480;2022-10-16T01:31:41;30.67;;;18.63;;
63688;SDS011;54895;40.928;14.480;2022-10-16T01:34:18;32.35;;;18.92;;
63688;SDS011;54895;40.928;14.480;2022-10-16T01:36:53;32.58;;;19.02;;
63688;SDS011;54895;40.928;14.480;2022-10-16T01:39:32;33.83;;;20.80;;
63688;SDS011;54895;40.928;14.480;2022-10-16T01:42:13;32.63;;;20.27;;
63688;SDS011;54895;40.928;14.480;2022-10-16T01:44:44;31.52;;;20.40;;
63688;SDS011;54895;40.928;14.480;2022-10-16T01:47:13;31.33;;;21.13;;
63688;SDS011;54895;40.928;14.480;2022-10-16T01:49:41;35.67;;;21.30;;
63688;SDS011;54895;40.928;14.480;2022-10-16T01:52:11;32.65;;;20.35;;
63688;SDS011;54895;40.928;14.480;2022-10-16T01:54:42;30.23;;;20.27;;
63688;SDS011;54895;40.928;14.480;2022-10-16T01:57:11;32.40;;;21.88;;
63688;SDS011;54895;40.928;14.480;2022-10-16T01:59:47;30.67;;;21.58;;
63688;SDS011;54895;40.928;14.480;2022-10-16T02:02:17;36.83;;;22.25;;
63688;SDS011;54895;40.928;14.480;2022-10-16T02:04:51;33.40;;;20.52;;
63688;SDS011;54895;40.928;14.480;2022-10-16T02:07:20;30.75;;;19.08;;
63688;SDS011;54895;40.928;14.480;2022-10-16T02:09:48;30.40;;;18.88;;
63688;SDS011;54895;40.928;14.480;2022-10-16T02:12:23;28.65;;;18.90;;
63688;SDS011;54895;40.928;14.480;2022-10-16T02:14:53;27.77;;;17.85;;
63688;SDS011;54895;40.928;14.480;2022-10-16T02:17:20;26.33;;;18.33;;
63688;SDS011;54895;40.928;14.480;2022-10-16T02:19:47;30.10;;;18.48;;
63688;SDS011;54895;40.928;14.480;2022-10-16T02:22:16;26.13;;;17.70;;
63688;SDS011;54895;40.928;14.480;2022-10-16T02:25:35;30.08;;;19.23;;
63688;SDS011;54895;40.928;14.480;2022-10-16T02:30:30;28.35;;;19.10;;
63688;SDS011;54895;40.928;14.480;2022-10-16T02:35:29;29.42;;;18.13;;
63688;SDS011;54895;40.928;14.480;2022-10-16T02:37:57;27.73;;;17.65;;
63688;SDS011;54895;40.928;14.480;2022-10-16T02:40:24;27.15;;;18.38;;
63688;SDS011;54895;40.928;14.480;2022-10-16T02:42:52;23.30;;;16.05;;
63688;SDS011;54895;40.928;14.480;2022-10-16T02:45:19;33.00;;;20.25;;
63688;SDS011;54895;40.928;14.480;2022-10-16T02:47:46;92.90;;;36.15;;
63688;SDS011;54895;40.928;14.480;2022-10-16T02:50:23;70.57;;;31.55;;
63688;SDS011;54895;40.928;14.480;2022-10-16T02:52:50;37.60;;;21.33;;
63688;SDS011;54895;40.928;14.480;2022-10-16T02:55:17;39.13;;;21.67;;
63688;SDS011;54895;40.928;14.480;2022-10-16T02:57:44;29.23;;;19.35;;
63688;SDS011;54895;40.928;14.480;2022-10-16T03:00:12;34.35;;;22.23;;
63688;SDS011;54895;40.928;14.480;2022-10-16T03:02:40;35.17;;;19.73;;
63688;SDS011;54895;40.928;14.480;2022-10-16T03:05:07;34.40;;;20.40;;
63688;SDS011;54895;40.928;14.480;2022-10-16T03:07:34;30.35;;;18.02;;
63688;SDS011;54895;40.928;14.480;2022-10-16T03:10:00;30.67;;;18.02;;
63688;SDS011;54895;40.928;14.480;2022-10-16T03:12:27;28.92;;;17.75;;
63688;SDS011;54895;40.928;14.480;2022-10-16T03:14:57;26.38;;;16.38;;
63688;SDS011;54895;40.928;14.480;2022-10-16T03:17:24;27.23;;;17.30;;
63688;SDS011;54895;40.928;14.480;2022-10-16T03:19:50;29.67;;;17.60;;
63688;SDS011;54895;40.928;14.480;2022-10-16T03:22:17;25.48;;;16.80;;
63688;SDS011;54895;40.928;14.480;2022-10-16T03:24:43;27.33;;;17.80;;
63688;SDS011;54895;40.928;14.480;2022-10-16T03:27:09;26.13;;;16.88;;
63688;SDS011;54895;40.928;14.480;2022-10-16T03:29:35;25.95;;;17.02;;
63688;SDS011;54895;40.928;14.480;2022-10-16T03:32:02;23.17;;;15.48;;
63688;SDS011;54895;40.928;14.480;2022-10-16T03:34:28;23.65;;;15.85;;
63688;SDS011;54895;40.928;14.480;2022-10-16T03:36:54;28.35;;;18.77;;
63688;SDS011;54895;40.928;14.480;2022-10-16T03:39:20;26.42;;;17.40;;
63688;SDS011;54895;40.928;14.480;2022-10-16T03:41:47;25.67;;;16.48;;
63688;SDS011;54895;40.928;14.480;2022-10-16T03:44:13;23.63;;;16.30;;
63688;SDS011;54895;40.928;14.480;2022-10-16T03:46:39;26.20;;;16.88;;
63688;SDS011;54895;40.928;14.480;2022-10-16T03:49:06;26.85;;;16.48;;
63688;SDS011;54895;40.928;14.480;2022-10-16T03:51:32;25.60;;;17.55;;
63688;SDS011;54895;40.928;14.480;2022-10-16T03:53:58;23.67;;;15.80;;
63688;SDS011;54895;40.928;14.480;2022-10-16T03:56:25;25.13;;;15.88;;
63688;SDS011;54895;40.928;14.480;2022-10-16T03:58:52;31.58;;;20.13;;
63688;SDS011;54895;40.928;14.480;2022-10-16T04:01:18;26.67;;;17.17;;
63688;SDS011;54895;40.928;14.480;2022-10-16T04:03:44;30.80;;;17.50;;
63688;SDS011;54895;40.928;14.480;2022-10-16T04:06:11;24.30;;;16.10;;
63688;SDS011;54895;40.928;14.480;2022-10-16T04:08:37;23.13;;;15.57;;
63688;SDS011;54895;40.928;14.480;2022-10-16T04:11:04;23.02;;;15.63;;
63688;SDS011;54895;40.928;14.480;2022-10-16T04:13:31;22.67;;;16.13;;
63688;SDS011;54895;40.928;14.480;2022-10-16T04:15:57;25.75;;;16.67;;
63688;SDS011;54895;40.928;14.480;2022-10-16T04:18:23;25.85;;;16.83;;
63688;SDS011;54895;40.928;14.480;2022-10-16T04:20:53;22.08;;;15.57;;
63688;SDS011;54895;40.928;14.480;2022-10-16T04:23:19;25.55;;;16.10;;
63688;SDS011;54895;40.928;14.480;2022-10-16T04:25:46;25.52;;;14.93;;
63688;SDS011;54895;40.928;14.480;2022-10-16T04:28:12;22.55;;;15.73;;
63688;SDS011;54895;40.928;14.480;2022-10-16T04:30:39;27.10;;;15.68;;
63688;SDS011;54895;40.928;14.480;2022-10-16T04:33:05;22.35;;;15.52;;
63688;SDS011;54895;40.928;14.480;2022-10-16T04:35:31;24.30;;;15.68;;
63688;SDS011;54895;40.928;14.480;2022-10-16T04:37:58;23.20;;;14.95;;
63688;SDS011;54895;40.928;14.480;2022-10-16T04:40:24;24.23;;;15.82;;
63688;SDS011;54895;40.928;14.480;2022-10-16T04:42:50;29.05;;;17.42;;
63688;SDS011;54895;40.928;14.480;2022-10-16T04:45:16;29.90;;;17.42;;
63688;SDS011;54895;40.928;14.480;2022-10-16T04:47:43;28.63;;;17.55;;
63688;SDS011;54895;40.928;14.480;2022-10-16T04:50:09;24.98;;;16.15;;
63688;SDS011;54895;40.928;14.480;2022-10-16T04:52:35;27.88;;;17.38;;
63688;SDS011;54895;40.928;14.480;2022-10-16T04:55:01;26.83;;;17.33;;
63688;SDS011;54895;40.928;14.480;2022-10-16T04:57:29;26.63;;;16.65;;
63688;SDS011;54895;40.928;14.480;2022-10-16T04:59:56;29.25;;;17.88;;
63688;SDS011;54895;40.928;14.480;2022-10-16T05:02:22;23.60;;;16.05;;
63688;SDS011;54895;40.928;14.480;2022-10-16T05:04:48;28.80;;;18.17;;
63688;SDS011;54895;40.928;14.480;2022-10-16T05:07:15;24.33;;;16.20;;
63688;SDS011;54895;40.928;14.480;2022-10-16T05:09:41;28.02;;;17.85;;
63688;SDS011;54895;40.928;14.480;2022-10-16T05:12:07;41.65;;;21.50;;
63688;SDS011;54895;40.928;14.480;2022-10-16T05:14:34;36.90;;;20.77;;
63688;SDS011;54895;40.928;14.480;2022-10-16T05:17:00;30.20;;;17.23;;
63688;SDS011;54895;40.928;14.480;2022-10-16T05:19:26;35.53;;;18.73;;
63688;SDS011;54895;40.928;14.480;2022-10-16T05:21:53;36.15;;;19.85;;
63688;SDS011;54895;40.928;14.480;2022-10-16T05:24:19;34.50;;;19.58;;
63688;SDS011;54895;40.928;14.480;2022-10-16T05:26:45;28.52;;;17.13;;
63688;SDS011;54895;40.928;14.480;2022-10-16T05:29:12;36.30;;;20.30;;
63688;SDS011;54895;40.928;14.480;2022-10-16T05:31:38;32.22;;;17.58;;
63688;SDS011;54895;40.928;14.480;2022-10-16T05:34:04;35.00;;;19.23;;
63688;SDS011;54895;40.928;14.480;2022-10-16T05:36:30;27.80;;;16.02;;
63688;SDS011;54895;40.928;14.480;2022-10-16T05:38:57;24.25;;;15.32;;
63688;SDS011;54895;40.928;14.480;2022-10-16T05:41:23;28.13;;;17.27;;
63688;SDS011;54895;40.928;14.480;2022-10-16T05:43:51;29.58;;;17.23;;
63688;SDS011;54895;40.928;14.480;2022-10-16T05:46:19;25.42;;;16.15;;
63688;SDS011;54895;40.928;14.480;2022-10-16T05:48:45;22.75;;;14.45;;
63688;SDS011;54895;40.928;14.480;2022-10-16T05:51:12;24.50;;;15.10;;
63688;SDS011;54895;40.928;14.480;2022-10-16T05:53:39;23.00;;;14.75;;
63688;SDS011;54895;40.928;14.480;2022-10-16T05:56:07;26.05;;;15.55;;
63688;SDS011;54895;40.928;14.480;2022-10-16T05:58:36;24.75;;;15.30;;
63688;SDS011;54895;40.928;14.480;2022-10-16T06:01:04;27.20;;;15.68;;
63688;SDS011;54895;40.928;14.480;2022-10-16T06:03:33;25.73;;;15.93;;
63688;SDS011;54895;40.928;14.480;2022-10-16T06:06:06;27.88;;;16.52;;
63688;SDS011;54895;40.928;14.480;2022-10-16T06:08:41;25.33;;;16.38;;
63688;SDS011;54895;40.928;14.480;2022-10-16T06:11:09;26.30;;;15.88;;
63688;SDS011;54895;40.928;14.480;2022-10-16T06:13:37;23.60;;;15.18;;
63688;SDS011;54895;40.928;14.480;2022-10-16T06:16:04;22.02;;;15.10;;
63688;SDS011;54895;40.928;14.480;2022-10-16T06:18:31;25.17;;;15.85;;
63688;SDS011;54895;40.928;14.480;2022-10-16T06:20:57;25.48;;;15.68;;
63688;SDS011;54895;40.928;14.480;2022-10-16T06:23:25;29.90;;;17.60;;
63688;SDS011;54895;40.928;14.480;2022-10-16T06:25:54;27.30;;;17.15;;
63688;SDS011;54895;40.928;14.480;2022-10-16T06:28:20;26.75;;;15.95;;
63688;SDS011;54895;40.928;14.480;2022-10-16T06:30:46;23.95;;;15.82;;
63688;SDS011;54895;40.928;14.480;2022-10-16T06:33:12;26.17;;;16.27;;
63688;SDS011;54895;40.928;14.480;2022-10-16T06:35:39;26.90;;;16.15;;
63688;SDS011;54895;40.928;14.480;2022-10-16T06:38:05;23.25;;;15.43;;
63688;SDS011;54895;40.928;14.480;2022-10-16T06:40:32;26.13;;;16.40;;
63688;SDS011;54895;40.928;14.480;2022-10-16T06:42:58;25.55;;;15.95;;
63688;SDS011;54895;40.928;14.480;2022-10-16T06:45:24;25.77;;;16.42;;
63688;SDS011;54895;40.928;14.480;2022-10-16T06:47:50;27.13;;;16.60;;
63688;SDS011;54895;40.928;14.480;2022-10-16T06:50:17;27.27;;;18.45;;
63688;SDS011;54895;40.928;14.480;2022-10-16T06:52:43;26.77;;;17.33;;
63688;SDS011;54895;40.928;14.480;2022-10-16T06:55:09;25.77;;;18.08;;
63688;SDS011;54895;40.928;14.480;2022-10-16T06:57:35;26.27;;;17.50;;
63688;SDS011;54895;40.928;14.480;2022-10-16T07:00:02;27.92;;;17.83;;
63688;SDS011;54895;40.928;14.480;2022-10-16T07:02:29;27.30;;;17.70;;
63688;SDS011;54895;40.928;14.480;2022-10-16T07:04:55;26.60;;;16.15;;
63688;SDS011;54895;40.928;14.480;2022-10-16T07:07:22;27.20;;;17.27;;
63688;SDS011;54895;40.928;14.480;2022-10-16T07:09:50;26.75;;;17.65;;
63688;SDS011;54895;40.928;14.480;2022-10-16T07:12:16;32.08;;;17.88;;
63688;SDS011;54895;40.928;14.480;2022-10-16T07:14:43;25.38;;;17.40;;
63688;SDS011;54895;40.928;14.480;2022-10-16T07:17:09;29.38;;;18.70;;
63688;SDS011;54895;40.928;14.480;2022-10-16T07:19:36;27.90;;;17.80;;
63688;SDS011;54895;40.928;14.480;2022-10-16T07:22:02;26.42;;;17.30;;
63688;SDS011;54895;40.928;14.480;2022-10-16T07:24:29;26.35;;;17.83;;
63688;SDS011;54895;40.928;14.480;2022-10-16T07:26:55;26.15;;;17.77;;
63688;SDS011;54895;40.928;14.480;2022-10-16T07:29:21;22.80;;;16.40;;
63688;SDS011;54895;40.928;14.480;2022-10-16T07:31:48;22.50;;;16.65;;
63688;SDS011;54895;40.928;14.480;2022-10-16T07:34:16;25.13;;;17.20;;
63688;SDS011;54895;40.928;14.480;2022-10-16T07:36:43;26.05;;;17.40;;
63688;SDS011;54895;40.928;14.480;2022-10-16T07:39:09;24.48;;;16.35;;
63688;SDS011;54895;40.928;14.480;2022-10-16T07:41:36;26.88;;;17.52;;
63688;SDS011;54895;40.928;14.480;2022-10-16T07:44:02;24.25;;;16.50;;
63688;SDS011;54895;40.928;14.480;2022-10-16T07:46:29;21.75;;;15.43;;
63688;SDS011;54895;40.928;14.480;2022-10-16T07:48:55;24.15;;;16.02;;
63688;SDS011;54895;40.928;14.480;2022-10-16T07:51:23;25.10;;;16.50;;
63688;SDS011;54895;40.928;14.480;2022-10-16T07:53:50;27.30;;;17.52;;
63688;SDS011;54895;40.928;14.480;2022-10-16T07:56:17;23.63;;;15.48;;
63688;SDS011;54895;40.928;14.480;2022-10-16T07:58:44;24.05;;;16.67;;
63688;SDS011;54895;40.928;14.480;2022-10-16T08:01:12;24.02;;;16.30;;
63688;SDS011;54895;40.928;14.480;2022-10-16T08:03:44;25.20;;;16.38;;
63688;SDS011;54895;40.928;14.480;2022-10-16T08:06:11;23.95;;;15.77;;
63688;SDS011;54895;40.928;14.480;2022-10-16T08:08:38;24.42;;;16.65;;
63688;SDS011;54895;40.928;14.480;2022-10-16T08:11:04;23.10;;;16.05;;
63688;SDS011;54895;40.928;14.480;2022-10-16T08:13:31;23.23;;;16.17;;
63688;SDS011;54895;40.928;14.480;2022-10-16T08:15:58;29.38;;;17.38;;
63688;SDS011;54895;40.928;14.480;2022-10-16T08:18:24;26.20;;;16.27;;
63688;SDS011;54895;40.928;14.480;2022-10-16T08:20:58;23.95;;;15.75;;
63688;SDS011;54895;40.928;14.480;2022-10-16T08:23:26;24.55;;;17.27;;
63688;SDS011;54895;40.928;14.480;2022-10-16T08:25:53;23.42;;;16.40;;
63688;SDS011;54895;40.928;14.480;2022-10-16T08:28:21;26.25;;;15.77;;
63688;SDS011;54895;40.928;14.480;2022-10-16T08:30:48;22.98;;;16.13;;
63688;SDS011;54895;40.928;14.480;2022-10-16T08:33:14;23.88;;;16.05;;
63688;SDS011;54895;40.928;14.480;2022-10-16T08:35:41;22.92;;;16.45;;
63688;SDS011;54895;40.928;14.480;2022-10-16T08:38:07;24.27;;;16.20;;
63688;SDS011;54895;40.928;14.480;2022-10-16T08:40:34;23.77;;;16.77;;
63688;SDS011;54895;40.928;14.480;2022-10-16T08:45:54;24.30;;;16.23;;
63688;SDS011;54895;40.928;14.480;2022-10-16T08:48:27;23.48;;;15.75;;
63688;SDS011;54895;40.928;14.480;2022-10-16T08:51:00;21.98;;;15.95;;
63688;SDS011;54895;40.928;14.480;2022-10-16T08:53:31;22.17;;;16.25;;
63688;SDS011;54895;40.928;14.480;2022-10-16T08:56:06;25.52;;;16.92;;
63688;SDS011;54895;40.928;14.480;2022-10-16T08:58:32;20.30;;;14.50;;
63688;SDS011;54895;40.928;14.480;2022-10-16T09:01:00;21.73;;;15.05;;
63688;SDS011;54895;40.928;14.480;2022-10-16T09:06:09;23.33;;;15.27;;
63688;SDS011;54895;40.928;14.480;2022-10-16T09:23:12;23.27;;;15.95;;
63688;SDS011;54895;40.928;14.480;2022-10-16T09:25:42;20.38;;;14.02;;
63688;SDS011;54895;40.928;14.480;2022-10-16T09:28:14;23.65;;;14.60;;
63688;SDS011;54895;40.928;14.480;2022-10-16T09:30:42;22.17;;;14.88;;
63688;SDS011;54895;40.928;14.480;2022-10-16T09:33:09;22.65;;;15.20;;
63688;SDS011;54895;40.928;14.480;2022-10-16T09:35:40;22.50;;;15.63;;
63688;SDS011;54895;40.928;14.480;2022-10-16T09:38:09;25.73;;;16.95;;
63688;SDS011;54895;40.928;14.480;2022-10-16T09:40:47;23.63;;;15.25;;
63688;SDS011;54895;40.928;14.480;2022-10-16T09:43:28;24.27;;;16.15;;
63688;SDS011;54895;40.928;14.480;2022-10-16T09:46:02;24.42;;;16.90;;
63688;SDS011;54895;40.928;14.480;2022-10-16T09:48:35;20.73;;;14.30;;
63688;SDS011;54895;40.928;14.480;2022-10-16T09:51:06;21.92;;;12.73;;
63688;SDS011;54895;40.928;14.480;2022-10-16T09:53:42;21.08;;;13.18;;
63688;SDS011;54895;40.928;14.480;2022-10-16T09:56:11;19.52;;;12.25;;
63688;SDS011;54895;40.928;14.480;2022-10-16T09:58:50;20.92;;;13.18;;
63688;SDS011;54895;40.928;14.480;2022-10-16T10:01:18;18.98;;;13.23;;
63688;SDS011;54895;40.928;14.480;2022-10-16T10:03:46;20.60;;;15.15;;
63688;SDS011;54895;40.928;14.480;2022-10-16T10:06:18;22.92;;;13.77;;
63688;SDS011;54895;40.928;14.480;2022-10-16T10:11:52;19.52;;;12.60;;
63688;SDS011;54895;40.928;14.480;2022-10-16T10:17:01;19.75;;;12.77;;
63688;SDS011;54895;40.928;14.480;2022-10-16T10:19:42;17.20;;;11.77;;
63688;SDS011;54895;40.928;14.480;2022-10-16T10:22:52;15.65;;;10.93;;
63688;SDS011;54895;40.928;14.480;2022-10-16T10:27:58;18.05;;;10.73;;
63688;SDS011;54895;40.928;14.480;2022-10-16T10:31:14;15.90;;;9.98;;
63688;SDS011;54895;40.928;14.480;2022-10-16T10:34:13;16.88;;;10.38;;
63688;SDS011;54895;40.928;14.480;2022-10-16T10:37:03;15.15;;;10.52;;
63688;SDS011;54895;40.928;14.480;2022-10-16T10:39:43;16.90;;;11.05;;
63688;SDS011;54895;40.928;14.480;2022-10-16T10:45:00;14.68;;;10.55;;
63688;SDS011;54895;40.928;14.480;2022-10-16T10:47:48;17.08;;;11.65;;
63688;SDS011;54895;40.928;14.480;2022-10-16T10:50:49;15.77;;;10.90;;
63688;SDS011;54895;40.928;14.480;2022-10-16T10:56:09;12.38;;;9.57;;
63688;SDS011;54895;40.928;14.480;2022-10-16T11:09:36;14.85;;;10.43;;
63688;SDS011;54895;40.928;14.480;2022-10-16T11:12:17;13.23;;;10.23;;
63688;SDS011;54895;40.928;14.480;2022-10-16T11:17:22;14.88;;;9.95;;
63688;SDS011;54895;40.928;14.480;2022-10-16T11:22:54;14.07;;;9.73;;
63688;SDS011;54895;40.928;14.480;2022-10-16T11:25:32;15.25;;;9.75;;
63688;SDS011;54895;40.928;14.480;2022-10-16T11:28:15;13.85;;;9.38;;
63688;SDS011;54895;40.928;14.480;2022-10-16T11:30:44;15.68;;;9.88;;
63688;SDS011;54895;40.928;14.480;2022-10-16T11:33:19;14.70;;;10.00;;
63688;SDS011;54895;40.928;14.480;2022-10-16T11:38:41;15.45;;;10.80;;
63688;SDS011;54895;40.928;14.480;2022-10-16T11:41:38;15.65;;;10.35;;
63688;SDS011;54895;40.928;14.480;2022-10-16T11:47:01;14.35;;;11.02;;
63688;SDS011;54895;40.928;14.480;2022-10-16T11:49:32;16.38;;;11.55;;
63688;SDS011;54895;40.928;14.480;2022-10-16T11:57:24;17.30;;;11.25;;
63688;SDS011;54895;40.928;14.480;2022-10-16T11:59:58;18.13;;;11.27;;
63688;SDS011;54895;40.928;14.480;2022-10-16T12:08:06;16.27;;;10.60;;
63688;SDS011;54895;40.928;14.480;2022-10-16T12:10:42;16.92;;;11.57;;
63688;SDS011;54895;40.928;14.480;2022-10-16T12:16:04;17.30;;;11.23;;
63688;SDS011;54895;40.928;14.480;2022-10-16T12:18:40;16.70;;;12.73;;
63688;SDS011;54895;40.928;14.480;2022-10-16T12:21:08;17.05;;;10.35;;
63688;SDS011;54895;40.928;14.480;2022-10-16T12:23:46;18.45;;;11.35;;
63688;SDS011;54895;40.928;14.480;2022-10-16T12:26:23;16.30;;;11.90;;
63688;SDS011;54895;40.928;14.480;2022-10-16T12:28:56;19.15;;;11.95;;
63688;SDS011;54895;40.928;14.480;2022-10-16T12:31:39;17.65;;;12.45;;
63688;SDS011;54895;40.928;14.480;2022-10-16T12:34:17;17.33;;;12.05;;
63688;SDS011;54895;40.928;14.480;2022-10-16T12:36:55;18.20;;;12.00;;
63688;SDS011;54895;40.928;14.480;2022-10-16T12:39:23;18.15;;;11.65;;
63688;SDS011;54895;40.928;14.480;2022-10-16T12:42:00;15.98;;;10.70;;
63688;SDS011;54895;40.928;14.480;2022-10-16T12:44:33;18.30;;;12.95;;
63688;SDS011;54895;40.928;14.480;2022-10-16T12:47:01;21.70;;;14.35;;
63688;SDS011;54895;40.928;14.480;2022-10-16T12:51:54;16.50;;;11.60;;
63688;SDS011;54895;40.928;14.480;2022-10-16T12:54:28;18.17;;;12.35;;
63688;SDS011;54895;40.928;14.480;2022-10-16T13:00:04;19.00;;;12.85;;
63688;SDS011;54895;40.928;14.480;2022-10-16T13:16:35;17.70;;;12.85;;
63688;SDS011;54895;40.928;14.480;2022-10-16T13:19:45;20.83;;;12.88;;
63688;SDS011;54895;40.928;14.480;2022-10-16T13:22:25;20.23;;;13.40;;
63688;SDS011;54895;40.928;14.480;2022-10-16T13:25:06;18.52;;;12.82;;
63688;SDS011;54895;40.928;14.480;2022-10-16T13:27:59;20.92;;;13.60;;
63688;SDS011;54895;40.928;14.480;2022-10-16T13:30:30;19.85;;;12.45;;
63688;SDS011;54895;40.928;14.480;2022-10-16T13:35:30;21.50;;;13.35;;
63688;SDS011;54895;40.928;14.480;2022-10-16T13:38:14;18.58;;;13.15;;
63688;SDS011;54895;40.928;14.480;2022-10-16T13:43:16;18.10;;;13.27;;
63688;SDS011;54895;40.928;14.480;2022-10-16T13:46:02;20.33;;;13.90;;
63688;SDS011;54895;40.928;14.480;2022-10-16T13:48:30;18.42;;;12.45;;
63688;SDS011;54895;40.928;14.480;2022-10-16T13:50:58;19.02;;;12.57;;
63688;SDS011;54895;40.928;14.480;2022-10-16T13:53:25;19.33;;;12.73;;
63688;SDS011;54895;40.928;14.480;2022-10-16T13:55:51;18.55;;;13.45;;
63688;SDS011;54895;40.928;14.480;2022-10-16T13:58:18;16.77;;;12.88;;
63688;SDS011;54895;40.928;14.480;2022-10-16T14:00:57;18.00;;;12.82;;
63688;SDS011;54895;40.928;14.480;2022-10-16T14:03:26;19.55;;;13.23;;
63688;SDS011;54895;40.928;14.480;2022-10-16T14:05:55;19.52;;;13.68;;
63688;SDS011;54895;40.928;14.480;2022-10-16T14:08:23;20.15;;;14.15;;
63688;SDS011;54895;40.928;14.480;2022-10-16T14:10:52;18.98;;;13.30;;
63688;SDS011;54895;40.928;14.480;2022-10-16T14:13:45;20.08;;;13.52;;
63688;SDS011;54895;40.928;14.480;2022-10-16T14:16:16;18.38;;;12.77;;
63688;SDS011;54895;40.928;14.480;2022-10-16T14:18:45;20.25;;;13.35;;
63688;SDS011;54895;40.928;14.480;2022-10-16T14:21:21;18.75;;;12.82;;
63688;SDS011;54895;40.928;14.480;2022-10-16T14:23:47;19.67;;;13.05;;
63688;SDS011;54895;40.928;14.480;2022-10-16T14:26:16;19.33;;;13.88;;
63688;SDS011;54895;40.928;14.480;2022-10-16T14:28:45;22.10;;;14.30;;
63688;SDS011;54895;40.928;14.480;2022-10-16T14:33:45;21.67;;;13.93;;
63688;SDS011;54895;40.928;14.480;2022-10-16T14:36:15;20.98;;;14.38;;
63688;SDS011;54895;40.928;14.480;2022-10-16T14:38:58;19.83;;;14.43;;
63688;SDS011;54895;40.928;14.480;2022-10-16T14:41:28;23.10;;;15.23;;
63688;SDS011;54895;40.928;14.480;2022-10-16T14:43:56;22.80;;;14.50;;
63688;SDS011;54895;40.928;14.480;2022-10-16T14:46:34;21.80;;;14.90;;
63688;SDS011;54895;40.928;14.480;2022-10-16T14:49:03;17.75;;;13.57;;
63688;SDS011;54895;40.928;14.480;2022-10-16T14:51:30;17.35;;;13.00;;
63688;SDS011;54895;40.928;14.480;2022-10-16T14:53:57;17.52;;;13.60;;
63688;SDS011;54895;40.928;14.480;2022-10-16T14:56:24;17.48;;;12.23;;
63688;SDS011;54895;40.928;14.480;2022-10-16T14:58:54;20.73;;;12.95;;
63688;SDS011;54895;40.928;14.480;2022-10-16T15:01:21;18.90;;;13.52;;
63688;SDS011;54895;40.928;14.480;2022-10-16T15:03:49;21.83;;;15.55;;
63688;SDS011;54895;40.928;14.480;2022-10-16T15:06:18;23.73;;;15.40;;
63688;SDS011;54895;40.928;14.480;2022-10-16T15:08:44;21.02;;;14.88;;
63688;SDS011;54895;40.928;14.480;2022-10-16T15:11:14;19.00;;;14.80;;
63688;SDS011;54895;40.928;14.480;2022-10-16T15:13:42;20.95;;;15.40;;
63688;SDS011;54895;40.928;14.480;2022-10-16T15:16:12;22.92;;;15.73;;
63688;SDS011;54895;40.928;14.480;2022-10-16T15:18:41;21.27;;;15.65;;
63688;SDS011;54895;40.928;14.480;2022-10-16T15:21:08;30.05;;;17.30;;
63688;SDS011;54895;40.928;14.480;2022-10-16T15:23:35;20.85;;;16.33;;
63688;SDS011;54895;40.928;14.480;2022-10-16T15:26:01;21.00;;;15.60;;
63688;SDS011;54895;40.928;14.480;2022-10-16T15:28:27;21.33;;;15.82;;
63688;SDS011;54895;40.928;14.480;2022-10-16T15:30:55;24.35;;;15.30;;
63688;SDS011;54895;40.928;14.480;2022-10-16T15:33:26;21.05;;;15.10;;
63688;SDS011;54895;40.928;14.480;2022-10-16T15:35:59;22.00;;;15.60;;
63688;SDS011;54895;40.928;14.480;2022-10-16T15:38:27;22.88;;;16.13;;
63688;SDS011;54895;40.928;14.480;2022-10-16T15:40:54;22.38;;;15.45;;
63688;SDS011;54895;40.928;14.480;2022-10-16T15:43:22;22.35;;;16.35;;
63688;SDS011;54895;40.928;14.480;2022-10-16T15:45:58;23.92;;;17.45;;
63688;SDS011;54895;40.928;14.480;2022-10-16T15:48:26;25.02;;;16.08;;
63688;SDS011;54895;40.928;14.480;2022-10-16T15:50:52;21.50;;;15.50;;
63688;SDS011;54895;40.928;14.480;2022-10-16T15:53:18;24.13;;;16.30;;
63688;SDS011;54895;40.928;14.480;2022-10-16T15:55:44;23.80;;;16.23;;
63688;SDS011;54895;40.928;14.480;2022-10-16T15:58:11;23.85;;;16.05;;
63688;SDS011;54895;40.928;14.480;2022-10-16T16:00:37;20.10;;;15.43;;
63688;SDS011;54895;40.928;14.480;2022-10-16T16:03:05;21.50;;;15.02;;
63688;SDS011;54895;40.928;14.480;2022-10-16T16:05:31;21.10;;;15.18;;
63688;SDS011;54895;40.928;14.480;2022-10-16T16:07:59;20.50;;;13.73;;
63688;SDS011;54895;40.928;14.480;2022-10-16T16:10:25;21.65;;;14.52;;
63688;SDS011;54895;40.928;14.480;2022-10-16T16:12:51;17.35;;;13.35;;
63688;SDS011;54895;40.928;14.480;2022-10-16T16:15:19;19.45;;;14.32;;
63688;SDS011;54895;40.928;14.480;2022-10-16T16:17:46;19.88;;;14.88;;
63688;SDS011;54895;40.928;14.480;2022-10-16T16:20:13;21.40;;;14.85;;
63688;SDS011;54895;40.928;14.480;2022-10-16T16:22:40;20.45;;;15.23;;
63688;SDS011;54895;40.928;14.480;2022-10-16T16:25:07;22.08;;;16.10;;
63688;SDS011;54895;40.928;14.480;2022-10-16T16:27:34;29.15;;;17.10;;